createdAt,value
2022-08-04T00:02:33.335Z,19.45
2022-08-04T00:05:07.842Z,19.53
2022-08-04T00:07:47.961Z,19.44
2022-08-04T00:10:21.473Z,19.45
2022-08-04T00:12:58.036Z,19.43
2022-08-04T00:15:29.546Z,19.44
2022-08-04T00:18:07.676Z,19.38
2022-08-04T00:20:44.062Z,19.31
2022-08-04T00:23:15.809Z,19.08
2022-08-04T00:25:46.133Z,18.97
2022-08-04T00:28:19.246Z,18.89
2022-08-04T00:30:50.193Z,18.97
2022-08-04T00:33:22.116Z,18.98
2022-08-04T00:35:52.552Z,19.00
2022-08-04T00:38:22.151Z,18.97
2022-08-04T00:41:10.781Z,19.01
2022-08-04T00:43:57.588Z,19.08
2022-08-04T00:46:44.599Z,19.20
2022-08-04T00:49:54.539Z,19.01
2022-08-04T00:52:57.727Z,18.86
2022-08-04T00:56:05.217Z,18.75
2022-08-04T00:59:04.171Z,18.85
2022-08-04T01:01:56.884Z,18.83
2022-08-04T01:04:51.033Z,19.01
2022-08-04T01:07:59.252Z,18.92
2022-08-04T01:10:46.178Z,18.90
2022-08-04T01:13:41.631Z,18.80
2022-08-04T01:16:15.527Z,18.68
2022-08-04T01:18:56.695Z,18.60
2022-08-04T01:22:09.558Z,18.67
2022-08-04T01:25:08.842Z,18.76
2022-08-04T01:28:08.109Z,18.76
2022-08-04T01:30:43.770Z,18.63
2022-08-04T01:33:16.109Z,18.38
2022-08-04T01:35:53.194Z,18.31
2022-08-04T01:38:29.412Z,18.49
2022-08-04T01:41:04.844Z,18.63
2022-08-04T01:43:37.054Z,18.61
2022-08-04T01:46:07.264Z,18.48
2022-08-04T01:48:40.213Z,18.41
2022-08-04T01:51:10.520Z,18.33
2022-08-04T01:53:41.589Z,18.40
2022-08-04T01:56:12.518Z,18.45
2022-08-04T01:58:42.763Z,18.52
2022-08-04T02:01:15.122Z,18.60
2022-08-04T02:04:21.323Z,18.52
2022-08-04T02:06:51.378Z,18.47
2022-08-04T02:09:33.211Z,18.55
2022-08-04T02:12:16.358Z,18.57
2022-08-04T02:15:01.615Z,18.61
2022-08-04T02:17:40.340Z,18.57
2022-08-04T02:20:16.347Z,18.60
2022-08-04T02:22:54.128Z,18.71
2022-08-04T02:25:28.759Z,18.85
2022-08-04T02:28:22.535Z,18.94
2022-08-04T02:31:09.480Z,18.73
2022-08-04T02:33:43.281Z,18.62
2022-08-04T02:36:17.914Z,18.60
2022-08-04T02:38:57.939Z,18.58
2022-08-04T02:41:29.868Z,18.64
2022-08-04T02:44:01.703Z,18.54
2022-08-04T02:46:32.482Z,18.37
2022-08-04T02:49:06.434Z,18.31
2022-08-04T02:51:38.186Z,18.20
2022-08-04T02:54:08.947Z,18.08
2022-08-04T02:56:39.619Z,18.10
2022-08-04T02:59:10.745Z,18.16
2022-08-04T03:01:56.517Z,18.01
2022-08-04T03:04:46.773Z,17.84
2022-08-04T03:07:58.999Z,17.80
2022-08-04T03:11:05.192Z,17.87
2022-08-04T03:13:53.896Z,17.96
2022-08-04T03:17:28.603Z,17.97
2022-08-04T03:20:38.870Z,17.90
2022-08-04T03:23:47.116Z,17.72
2022-08-04T03:27:17.158Z,17.66
2022-08-04T03:30:14.322Z,17.58
2022-08-04T03:33:21.294Z,17.67
2022-08-04T03:36:39.428Z,17.67
2022-08-04T03:39:59.691Z,17.63
2022-08-04T03:43:59.439Z,17.57
2022-08-04T03:46:41.813Z,17.48
2022-08-04T03:49:51.319Z,17.35
2022-08-04T03:53:10.891Z,17.22
2022-08-04T03:56:09.339Z,17.20
2022-08-04T03:58:54.135Z,17.17
2022-08-04T04:02:10.908Z,17.09
2022-08-04T04:05:05.734Z,16.97
2022-08-04T04:08:28.704Z,16.77
2022-08-04T04:11:36.166Z,16.83
2022-08-04T04:14:54.884Z,16.98
2022-08-04T04:18:16.988Z,17.09
2022-08-04T04:21:28.456Z,17.17
2022-08-04T04:24:47.063Z,17.38
2022-08-04T04:27:38.824Z,17.57
2022-08-04T04:30:13.512Z,17.63
2022-08-04T04:33:28.656Z,17.68
2022-08-04T04:36:12.545Z,17.77
2022-08-04T04:39:14.779Z,17.88
2022-08-04T04:42:09.142Z,18.00
2022-08-04T04:45:19.564Z,18.06
2022-08-04T04:48:08.880Z,18.12
2022-08-04T04:50:59.782Z,18.22
2022-08-04T04:53:38.567Z,18.33
2022-08-04T04:56:24.079Z,18.49
2022-08-04T04:58:56.945Z,18.59
2022-08-04T05:01:53.438Z,18.63
2022-08-04T05:04:59.180Z,18.75
2022-08-04T05:07:58.456Z,18.89
2022-08-04T05:10:50.476Z,19.05
2022-08-04T05:14:34.918Z,19.22
2022-08-04T05:16:36.036Z,19.40
2022-08-04T05:19:22.217Z,19.52
2022-08-04T05:21:59.421Z,19.72
2022-08-04T05:24:35.135Z,19.81
2022-08-04T05:27:15.634Z,19.92
2022-08-04T05:29:57.409Z,20.05
2022-08-04T05:32:32.144Z,20.25
2022-08-04T05:35:07.487Z,20.41
2022-08-04T05:37:41.787Z,20.58
2022-08-04T05:40:13.881Z,20.79
2022-08-04T05:42:43.008Z,20.94
2022-08-04T05:45:14.602Z,21.16
2022-08-04T05:47:44.988Z,21.33
2022-08-04T05:50:15.051Z,21.49
2022-08-04T05:52:44.445Z,21.65
2022-08-04T05:55:48.408Z,21.83
2022-08-04T05:58:04.557Z,22.04
2022-08-04T06:00:41.098Z,22.26
2022-08-04T06:03:12.940Z,22.49
2022-08-04T06:05:43.908Z,22.81
2022-08-04T06:08:14.030Z,23.16
2022-08-04T06:10:47.571Z,23.51
2022-08-04T06:13:49.285Z,24.09
2022-08-04T06:16:17.892Z,24.70
2022-08-04T06:20:03.139Z,25.18
2022-08-04T06:21:54.482Z,25.47
2022-08-04T06:24:30.003Z,25.53
2022-08-04T06:27:00.605Z,25.78
2022-08-04T06:29:36.178Z,26.20
2022-08-04T06:32:27.024Z,26.58
2022-08-04T06:35:05.567Z,27.02
2022-08-04T06:37:42.761Z,27.41
2022-08-04T06:40:30.822Z,27.78
2022-08-04T06:43:02.860Z,27.66
2022-08-04T06:45:35.445Z,27.48
2022-08-04T06:48:07.514Z,27.82
2022-08-04T06:51:28.656Z,28.09
2022-08-04T06:53:27.115Z,28.06
2022-08-04T06:55:57.345Z,28.15
2022-08-04T06:58:27.104Z,28.38
2022-08-04T07:01:01.894Z,28.74
2022-08-04T07:03:33.525Z,28.60
2022-08-04T07:06:05.703Z,28.35
2022-08-04T07:08:37.076Z,28.28
2022-08-04T07:11:07.356Z,28.73
2022-08-04T07:13:40.772Z,29.01
2022-08-04T07:16:14.616Z,29.11
2022-08-04T07:18:44.538Z,29.39
2022-08-04T07:21:21.693Z,29.53
2022-08-04T07:23:51.136Z,29.83
2022-08-04T07:26:19.883Z,29.51
2022-08-04T07:28:48.620Z,29.68
2022-08-04T07:31:33.494Z,29.91
2022-08-04T07:34:21.484Z,29.93
2022-08-04T07:36:55.245Z,29.80
2022-08-04T07:39:28.245Z,30.21
2022-08-04T07:42:01.127Z,30.25
2022-08-04T07:44:31.990Z,30.47
2022-08-04T07:47:01.568Z,30.75
2022-08-04T07:49:56.735Z,30.87
2022-08-04T07:52:19.932Z,30.94
2022-08-04T07:54:50.564Z,31.08
2022-08-04T07:57:39.824Z,31.26
2022-08-04T08:00:14.497Z,31.43
2022-08-04T08:02:43.584Z,31.64
2022-08-04T08:05:17.981Z,31.57
2022-08-04T08:07:50.459Z,31.87
2022-08-04T08:10:23.720Z,32.04
2022-08-04T08:12:53.195Z,32.00
2022-08-04T08:15:22.679Z,32.39
2022-08-04T08:17:59.398Z,32.81
2022-08-04T08:20:32.263Z,32.09
2022-08-04T08:23:02.842Z,32.76
2022-08-04T08:25:33.244Z,32.98
2022-08-04T08:28:04.880Z,33.16
2022-08-04T08:30:35.109Z,33.50
2022-08-04T08:33:07.732Z,33.76
2022-08-04T08:35:53.086Z,33.74
2022-08-04T08:38:38.907Z,33.95
2022-08-04T08:41:52.192Z,33.70
2022-08-04T08:45:08.340Z,33.75
2022-08-04T08:48:06.014Z,34.47
2022-08-04T08:51:08.085Z,35.00
2022-08-04T08:54:09.658Z,34.83
2022-08-04T08:56:53.292Z,35.45
2022-08-04T08:59:49.122Z,35.24
2022-08-04T09:03:04.524Z,34.39
2022-08-04T09:05:58.660Z,34.69
2022-08-04T09:08:54.080Z,35.01
2022-08-04T09:11:28.961Z,34.95
2022-08-04T09:14:06.580Z,35.03
2022-08-04T09:16:43.683Z,35.53
2022-08-04T09:19:38.115Z,35.69
2022-08-04T09:22:21.885Z,36.16
2022-08-04T09:25:02.627Z,36.18
2022-08-04T09:27:45.512Z,36.73
2022-08-04T09:30:18.961Z,36.92
2022-08-04T09:33:08.835Z,36.78
2022-08-04T09:35:49.895Z,36.76
2022-08-04T09:38:28.849Z,36.38
2022-08-04T09:41:03.895Z,35.96
2022-08-04T09:44:48.705Z,36.54
2022-08-04T09:47:00.706Z,36.84
2022-08-04T09:49:37.861Z,37.16
2022-08-04T09:52:23.950Z,37.19
2022-08-04T09:55:06.481Z,37.90
2022-08-04T09:57:52.809Z,38.05
2022-08-04T10:00:40.500Z,36.99
2022-08-04T10:03:19.582Z,36.98
2022-08-04T10:06:07.825Z,36.21
2022-08-04T10:09:00.468Z,36.78
2022-08-04T10:11:56.682Z,37.19
2022-08-04T10:14:47.506Z,37.26
2022-08-04T10:17:35.786Z,37.80
2022-08-04T10:20:15.236Z,38.22
2022-08-04T10:23:55.287Z,38.56
2022-08-04T10:26:34.431Z,37.74
2022-08-04T10:29:11.365Z,37.81
2022-08-04T10:31:47.853Z,38.73
2022-08-04T10:34:22.658Z,38.60
2022-08-04T10:37:00.613Z,38.91
2022-08-04T10:40:04.031Z,38.86
2022-08-04T10:42:37.072Z,39.32
2022-08-04T10:45:19.277Z,38.90
2022-08-04T10:48:01.333Z,39.22
2022-08-04T10:50:31.475Z,38.24
2022-08-04T10:53:07.795Z,38.10
2022-08-04T10:56:06.786Z,38.69
2022-08-04T10:58:48.228Z,37.96
2022-08-04T11:02:00.862Z,39.17
2022-08-04T11:04:37.735Z,39.74
2022-08-04T11:07:06.694Z,39.29
2022-08-04T11:09:36.801Z,39.31
2022-08-04T11:12:15.556Z,39.66
2022-08-04T11:14:54.948Z,39.35
2022-08-04T11:17:33.627Z,38.46
2022-08-04T11:23:10.869Z,35.58
2022-08-04T11:25:53.879Z,36.50
2022-08-04T11:28:40.161Z,37.69
2022-08-04T11:31:14.312Z,38.49
2022-08-04T11:33:53.588Z,39.48
2022-08-04T11:36:33.430Z,39.03
2022-08-04T11:39:11.311Z,38.34
2022-08-04T11:41:49.769Z,38.57
2022-08-04T11:44:27.738Z,39.13
2022-08-04T11:47:04.317Z,39.00
2022-08-04T11:49:56.116Z,39.65
2022-08-04T11:52:30.139Z,38.79
2022-08-04T11:55:01.613Z,39.36
2022-08-04T11:57:35.893Z,38.65
2022-08-04T12:00:11.096Z,38.95
2022-08-04T12:03:13.519Z,37.88
2022-08-04T12:05:58.467Z,38.70
2022-08-04T12:08:49.088Z,38.53
2022-08-04T12:11:35.929Z,39.80
2022-08-04T12:14:21.132Z,40.05
2022-08-04T12:17:00.488Z,40.36
2022-08-04T12:19:41.986Z,40.83
2022-08-04T12:22:33.598Z,40.27
2022-08-04T12:25:07.483Z,39.53
2022-08-04T12:27:42.986Z,38.08
2022-08-04T12:30:58.981Z,37.71
2022-08-04T12:33:12.001Z,37.63
2022-08-04T12:36:04.309Z,38.11
2022-08-04T12:39:00.294Z,38.65
2022-08-04T12:41:40.192Z,37.85
2022-08-04T12:44:36.256Z,37.53
2022-08-04T12:47:25.653Z,37.83
2022-08-04T12:50:03.578Z,39.08
2022-08-04T12:53:01.449Z,38.25
2022-08-04T12:55:31.505Z,38.19
2022-08-04T12:58:02.707Z,39.18
2022-08-04T13:00:43.756Z,40.12
2022-08-04T13:03:17.790Z,40.83
2022-08-04T13:05:47.757Z,39.66
2022-08-04T13:08:21.923Z,39.98
2022-08-04T13:10:58.541Z,39.54
2022-08-04T13:13:32.452Z,39.08
2022-08-04T13:16:05.601Z,39.06
2022-08-04T13:18:40.872Z,39.70
2022-08-04T13:21:19.789Z,39.85
2022-08-04T13:24:10.078Z,40.21
2022-08-04T13:26:55.481Z,40.20
2022-08-04T13:29:57.737Z,40.46
2022-08-04T13:32:22.355Z,39.88
2022-08-04T13:34:54.914Z,38.79
2022-08-04T13:37:31.671Z,38.49
2022-08-04T13:40:03.388Z,37.60
2022-08-04T13:42:36.355Z,38.19
2022-08-04T13:45:09.309Z,38.28
2022-08-04T13:47:42.032Z,39.11
2022-08-04T13:50:23.489Z,40.07
2022-08-04T13:52:55.910Z,39.47
2022-08-04T13:55:31.722Z,39.07
2022-08-04T13:58:11.568Z,39.10
2022-08-04T14:00:54.712Z,39.11
2022-08-04T14:03:31.623Z,38.88
2022-08-04T14:06:24.455Z,39.43
2022-08-04T14:08:56.535Z,39.34
2022-08-04T14:12:10.505Z,39.89
2022-08-04T14:14:28.204Z,39.96
2022-08-04T14:17:04.736Z,39.64
2022-08-04T14:19:54.351Z,38.37
2022-08-04T14:22:35.833Z,38.41
2022-08-04T14:25:15.849Z,39.15
2022-08-04T14:27:47.292Z,39.59
2022-08-04T14:30:29.580Z,39.45
2022-08-04T14:34:02.944Z,39.01
2022-08-04T14:36:01.705Z,38.05
2022-08-04T14:38:49.694Z,37.78
2022-08-04T14:41:21.399Z,37.59
2022-08-04T14:43:53.126Z,38.13
2022-08-04T14:46:30.329Z,38.31
2022-08-04T14:49:11.008Z,38.42
2022-08-04T14:51:42.770Z,38.62
2022-08-04T14:54:17.643Z,38.31
2022-08-04T14:56:56.014Z,38.42
2022-08-04T14:59:25.617Z,38.40
2022-08-04T15:02:00.522Z,37.92
2022-08-04T15:04:32.274Z,38.09
2022-08-04T15:07:04.567Z,37.59
2022-08-04T15:09:34.005Z,37.74
2022-08-04T15:12:04.256Z,37.17
2022-08-04T15:14:36.914Z,36.79
2022-08-04T15:17:12.514Z,38.06
2022-08-04T15:19:58.119Z,38.32
2022-08-04T15:22:26.718Z,38.01
2022-08-04T15:24:56.089Z,38.41
2022-08-04T15:27:29.610Z,37.85
2022-08-04T15:30:03.392Z,37.77
2022-08-04T15:32:38.130Z,37.47
2022-08-04T15:35:12.725Z,37.12
2022-08-04T15:37:55.219Z,37.33
2022-08-04T15:40:33.790Z,38.03
2022-08-04T15:43:21.690Z,37.11
2022-08-04T15:46:33.004Z,36.85
2022-08-04T15:48:41.945Z,36.79
2022-08-04T15:51:15.455Z,37.34
2022-08-04T15:54:30.628Z,37.66
2022-08-04T15:57:03.452Z,38.01
2022-08-04T16:00:01.558Z,38.02
2022-08-04T16:02:46.883Z,37.28
2022-08-04T16:05:39.350Z,37.25
2022-08-04T16:08:18.257Z,36.95
2022-08-04T16:10:50.495Z,37.14
2022-08-04T16:13:22.208Z,37.54
2022-08-04T16:15:54.546Z,36.81
2022-08-04T16:18:40.301Z,36.99
2022-08-04T16:21:26.429Z,37.21
2022-08-04T16:24:20.091Z,37.31
2022-08-04T16:26:57.338Z,37.26
2022-08-04T16:29:40.693Z,36.44
2022-08-04T16:32:16.182Z,36.28
2022-08-04T16:34:55.289Z,35.76
2022-08-04T16:37:32.704Z,35.54
2022-08-04T16:40:38.499Z,35.41
2022-08-04T16:43:13.440Z,35.66
2022-08-04T16:45:54.989Z,35.25
2022-08-04T16:48:27.441Z,35.10
2022-08-04T16:51:04.740Z,34.48
2022-08-04T16:54:02.763Z,34.69
2022-08-04T16:56:36.239Z,35.09
2022-08-04T16:59:10.239Z,34.94
2022-08-04T17:01:39.676Z,35.00
2022-08-04T17:04:08.253Z,34.86
2022-08-04T17:06:39.330Z,34.62
2022-08-04T17:09:14.747Z,34.42
2022-08-04T17:11:48.266Z,34.31
2022-08-04T17:14:23.957Z,34.11
2022-08-04T17:16:53.523Z,34.12
2022-08-04T17:19:25.890Z,34.30
2022-08-04T17:22:04.963Z,34.38
2022-08-04T17:24:38.235Z,34.24
2022-08-04T17:28:09.788Z,34.09
2022-08-04T17:29:56.211Z,34.16
2022-08-04T17:32:25.416Z,33.73
2022-08-04T17:34:57.190Z,33.60
2022-08-04T17:37:39.536Z,33.21
2022-08-04T17:40:17.951Z,33.06
2022-08-04T17:42:51.637Z,32.73
2022-08-04T17:48:24.159Z,32.30
2022-08-04T17:50:53.424Z,31.87
2022-08-04T17:53:52.817Z,31.54
2022-08-04T17:56:52.144Z,31.25
2022-08-04T17:59:56.539Z,31.06
2022-08-04T18:02:33.115Z,30.86
2022-08-04T18:05:14.659Z,30.65
2022-08-04T18:08:40.213Z,30.41
2022-08-04T18:10:54.209Z,30.01
2022-08-04T18:16:27.687Z,29.30
2022-08-04T18:19:12.730Z,28.94
2022-08-04T18:22:00.500Z,28.70
2022-08-04T18:24:56.425Z,28.51
2022-08-04T18:27:30.214Z,28.37
2022-08-04T18:30:34.318Z,28.25
2022-08-04T18:33:10.626Z,28.03
2022-08-04T18:36:32.564Z,27.88
2022-08-04T18:38:35.659Z,27.71
2022-08-04T18:41:23.674Z,27.53
2022-08-04T18:43:55.873Z,27.45
2022-08-04T18:46:27.346Z,27.38
2022-08-04T18:48:58.337Z,27.38
2022-08-04T18:51:31.007Z,27.37
2022-08-04T18:54:00.285Z,27.29
2022-08-04T18:56:32.476Z,27.01
2022-08-04T18:59:03.033Z,26.72
2022-08-04T19:02:09.277Z,26.59
2022-08-04T19:04:32.875Z,26.52
2022-08-04T19:07:29.319Z,26.35
2022-08-04T19:09:57.830Z,26.23
2022-08-04T19:12:28.902Z,26.24
2022-08-04T19:15:10.687Z,26.31
2022-08-04T19:17:52.414Z,26.37
2022-08-04T19:20:25.073Z,26.47
2022-08-04T19:24:28.584Z,26.68
2022-08-04T19:26:01.912Z,26.93
2022-08-04T19:28:36.253Z,27.00
2022-08-04T19:31:06.765Z,27.06
2022-08-04T19:33:58.222Z,27.21
2022-08-04T19:36:28.669Z,27.35
2022-08-04T19:38:59.233Z,27.35
2022-08-04T19:41:30.602Z,27.35
2022-08-04T19:44:00.035Z,27.37
2022-08-04T19:46:29.230Z,27.40
2022-08-04T19:49:00.836Z,27.29
2022-08-04T19:51:32.651Z,27.23
2022-08-04T19:54:05.871Z,27.19
2022-08-04T19:56:41.287Z,27.05
2022-08-04T19:59:10.954Z,26.95
2022-08-04T20:01:45.227Z,26.81
2022-08-04T20:04:15.882Z,26.75
2022-08-04T20:06:44.766Z,26.62
2022-08-04T20:09:25.098Z,26.50
2022-08-04T20:11:55.936Z,26.40
2022-08-04T20:14:32.627Z,26.24
2022-08-04T20:17:03.417Z,26.04
2022-08-04T20:19:40.898Z,25.93
2022-08-04T20:22:52.930Z,25.72
2022-08-04T20:25:11.046Z,25.67
2022-08-04T20:27:59.285Z,25.70
2022-08-04T20:30:29.529Z,25.65
2022-08-04T20:33:00.075Z,25.67
2022-08-04T20:35:30.358Z,25.68
2022-08-04T20:38:01.441Z,25.76
2022-08-04T20:40:30.712Z,25.71
2022-08-04T20:42:59.798Z,25.61
2022-08-04T20:45:56.634Z,25.54
2022-08-04T20:48:16.975Z,25.43
2022-08-04T20:50:48.175Z,25.25
2022-08-04T20:53:17.364Z,25.17
2022-08-04T20:55:55.102Z,25.07
2022-08-04T20:58:27.497Z,24.99
2022-08-04T21:00:57.135Z,24.83
2022-08-04T21:03:49.417Z,24.78
2022-08-04T21:06:15.723Z,24.84
2022-08-04T21:08:57.283Z,24.72
2022-08-04T21:11:32.730Z,24.63
2022-08-04T21:14:02.233Z,24.57
2022-08-04T21:16:55.520Z,24.51
2022-08-04T21:19:22.417Z,24.55
2022-08-04T21:21:54.965Z,24.52
2022-08-04T21:24:26.135Z,24.40
2022-08-04T21:26:57.931Z,24.35
2022-08-04T21:29:29.651Z,24.24
2022-08-04T21:32:05.716Z,24.18
2022-08-04T21:34:39.723Z,24.14
2022-08-04T21:37:56.551Z,24.09
2022-08-04T21:40:13.732Z,24.05
2022-08-04T21:42:50.091Z,24.03
2022-08-04T21:45:22.037Z,24.04
2022-08-04T21:47:50.937Z,24.04
2022-08-04T21:50:20.397Z,23.96
2022-08-04T21:52:50.670Z,23.97
2022-08-04T21:55:19.708Z,23.97
2022-08-04T21:57:49.356Z,23.93
2022-08-04T22:00:20.245Z,23.87
2022-08-04T22:02:53.363Z,23.86
2022-08-04T22:05:22.512Z,23.82
2022-08-04T22:07:52.748Z,23.79
2022-08-04T22:10:31.970Z,23.77
2022-08-04T22:13:02.925Z,23.77
2022-08-04T22:16:04.928Z,23.77
2022-08-04T22:18:24.676Z,23.74
2022-08-04T22:20:56.124Z,23.73
2022-08-04T22:23:25.801Z,23.70
2022-08-04T22:25:56.163Z,23.63
2022-08-04T22:28:28.766Z,23.58
2022-08-04T22:30:58.269Z,23.57
2022-08-04T22:33:54.592Z,23.53
2022-08-04T22:36:17.350Z,23.43
2022-08-04T22:38:56.866Z,23.39
2022-08-04T22:41:48.963Z,23.35
2022-08-04T22:44:23.945Z,23.35
2022-08-04T22:46:58.107Z,23.30
2022-08-04T22:49:31.454Z,23.33
2022-08-04T22:52:02.854Z,23.38
2022-08-04T22:54:40.768Z,23.38
2022-08-04T22:57:09.539Z,23.40
2022-08-04T22:59:42.890Z,23.41
2022-08-04T23:02:11.722Z,23.42
2022-08-04T23:04:43.289Z,23.40
2022-08-04T23:07:12.835Z,23.37
2022-08-04T23:09:50.777Z,23.24
2022-08-04T23:12:25.980Z,23.17
2022-08-04T23:14:56.479Z,23.06
2022-08-04T23:17:27.750Z,22.99
2022-08-04T23:19:57.748Z,22.99
2022-08-04T23:22:42.236Z,23.03
2022-08-04T23:25:16.503Z,23.04
2022-08-04T23:27:51.233Z,23.08
2022-08-04T23:30:24.650Z,23.22
2022-08-04T23:32:58.136Z,23.24
2022-08-04T23:35:26.640Z,23.11
2022-08-04T23:37:56.912Z,23.02
2022-08-04T23:40:34.201Z,22.87
2022-08-04T23:43:10.517Z,22.82
2022-08-04T23:46:04.059Z,22.79
2022-08-04T23:48:34.938Z,22.54
2022-08-04T23:51:14.103Z,22.46
2022-08-04T23:54:02.507Z,22.44
2022-08-04T23:56:34.819Z,22.35
2022-08-04T23:59:04.788Z,22.43
